Time;durP1;ratioP1;P1;durP2;ratioP2;P2;SDS_P1;SDS_P2;PMS_P1;PMS_P2;Temp;Humidity;BMP_temperature;BMP_pressure;BME280_temperature;BME280_humidity;BME280_pressure;Samples;Min_cycle;Max_cycle;Signal;HPM_P1;HPM_P2
2022/12/17 13:06:52;;;;;;;33.40;13.53;;;-3.20;99.90;;;;;;6068658;23;20511;-82
2022/12/17 13:09:25;;;;;;;38.53;14.17;;;-3.10;99.90;;;;;;6087661;23;20486;-83
2022/12/17 13:12:02;;;;;;;36.50;13.43;;;-3.00;99.90;;;;;;6098183;23;20175;-82
2022/12/17 13:14:42;;;;;;;39.33;14.97;;;-3.00;99.90;;;;;;6097568;23;20196;-81
2022/12/17 13:17:15;;;;;;;38.80;15.13;;;-3.00;99.90;;;;;;6097490;23;20272;-83
2022/12/17 13:19:57;;;;;;;38.73;14.53;;;-2.90;99.90;;;;;;6098062;23;20264;-86
2022/12/17 13:22:28;;;;;;;39.50;14.27;;;-2.90;99.90;;;;;;6097939;23;20194;-83
2022/12/17 13:25:14;;;;;;;40.17;14.57;;;-3.20;99.90;;;;;;6185198;23;20688;-81
2022/12/17 13:27:42;;;;;;;39.33;13.83;;;-3.40;99.90;;;;;;6192171;23;20197;-82
2022/12/17 13:30:21;;;;;;;45.70;14.60;;;-3.60;99.90;;;;;;6192183;23;20166;-80
2022/12/17 13:32:58;;;;;;;37.73;13.93;;;-3.50;99.90;;;;;;6192570;23;20219;-82
2022/12/17 13:35:48;;;;;;;38.67;14.17;;;-3.70;99.90;;;;;;6219652;23;20170;-85
2022/12/17 13:38:32;;;;;;;42.40;15.03;;;-3.70;99.90;;;;;;6192702;23;20171;-76
2022/12/17 13:41:11;;;;;;;39.30;15.10;;;-3.80;99.90;;;;;;6192008;23;20166;-76
2022/12/17 13:43:53;;;;;;;41.40;15.10;;;-3.90;99.90;;;;;;6191780;23;20186;-76
2022/12/17 13:46:25;;;;;;;43.13;15.70;;;-3.90;99.90;;;;;;6166462;23;20612;-76
2022/12/17 13:49:15;;;;;;;39.20;14.47;;;-3.90;99.90;;;;;;6191999;23;20206;-75
2022/12/17 13:51:42;;;;;;;42.17;15.37;;;-4.00;99.90;;;;;;6191941;23;20155;-77
2022/12/17 13:54:21;;;;;;;42.40;15.90;;;-3.90;99.90;;;;;;6191304;23;20624;-74
2022/12/17 13:56:49;;;;;;;45.03;15.53;;;-3.90;99.90;;;;;;6191287;23;20564;-75
2022/12/17 13:59:23;;;;;;;44.97;16.13;;;-3.90;99.90;;;;;;6191726;23;20185;-76
2022/12/17 14:01:52;;;;;;;43.80;16.60;;;-3.80;99.90;;;;;;6191512;23;20286;-81
2022/12/17 14:04:26;;;;;;;46.97;17.37;;;-3.70;99.90;;;;;;6190671;23;20163;-85
2022/12/17 14:07:10;;;;;;;47.30;16.80;;;-3.80;99.90;;;;;;6217152;23;20171;-94
2022/12/17 14:09:41;;;;;;;45.10;16.30;;;-3.80;99.90;;;;;;6190658;23;20260;-77
2022/12/17 14:12:22;;;;;;;49.47;16.97;;;-3.80;99.90;;;;;;6217081;23;20179;-89
2022/12/17 14:15:00;;;;;;;44.87;16.93;;;-4.00;99.90;;;;;;6190336;23;20253;-79
2022/12/17 14:17:47;;;;;;;50.53;17.67;;;-4.00;99.90;;;;;;6190201;23;20170;-83
2022/12/17 14:20:32;;;;;;;47.97;17.30;;;-4.10;99.90;;;;;;6217546;23;20203;-86
2022/12/17 14:23:01;;;;;;;47.17;17.00;;;-4.00;99.90;;;;;;6217222;23;20269;-82
2022/12/17 14:25:39;;;;;;;53.53;17.93;;;-3.80;99.90;;;;;;6216885;23;20163;-82
2022/12/17 14:28:30;;;;;;;56.43;18.53;;;-3.70;99.90;;;;;;6216379;23;20170;-83
2022/12/17 14:31:20;;;;;;;48.53;17.67;;;-3.80;99.90;;;;;;6190745;23;20167;-86
2022/12/17 14:34:06;;;;;;;51.23;17.70;;;-3.80;99.90;;;;;;6216827;23;20558;-83
2022/12/17 14:36:39;;;;;;;47.17;17.37;;;-3.70;99.90;;;;;;6190448;23;20239;-81
2022/12/17 14:39:24;;;;;;;47.77;16.60;;;-3.70;99.90;;;;;;6217084;23;20151;-79
2022/12/17 14:44:54;;;;;;;42.63;15.77;;;-4.00;99.90;;;;;;6189772;23;20250;-80
2022/12/17 14:47:25;;;;;;;46.73;16.50;;;-3.90;99.90;;;;;;6190044;23;20254;-86
2022/12/17 14:50:22;;;;;;;47.57;15.63;;;-4.00;99.90;;;;;;6190296;23;20175;-83
2022/12/17 14:52:54;;;;;;;46.87;16.00;;;-4.00;99.90;;;;;;6195929;23;20181;-81
2022/12/17 14:55:24;;;;;;;48.67;16.03;;;-4.00;99.90;;;;;;6189406;23;20177;-79
2022/12/17 14:57:53;;;;;;;51.07;16.70;;;-4.20;99.90;;;;;;6216821;23;20501;-80
2022/12/17 15:00:20;;;;;;;46.60;16.13;;;-4.40;99.90;;;;;;6217134;23;20472;-79
2022/12/17 15:02:56;;;;;;;43.93;16.47;;;-4.30;99.90;;;;;;6190371;23;20282;-80
2022/12/17 15:05:23;;;;;;;49.80;17.27;;;-4.20;99.90;;;;;;6190169;23;20221;-76
2022/12/17 15:07:50;;;;;;;53.03;16.87;;;-4.20;99.90;;;;;;6187812;23;20624;-81
2022/12/17 15:10:19;;;;;;;41.73;14.97;;;-4.50;99.90;;;;;;6189947;23;20212;-83
2022/12/17 15:12:47;;;;;;;45.10;16.60;;;-4.50;99.90;;;;;;6217431;23;20549;-84
2022/12/17 15:15:15;;;;;;;48.50;16.27;;;-4.50;99.90;;;;;;6216816;23;20204;-84
2022/12/17 15:17:42;;;;;;;49.70;16.80;;;-4.40;99.90;;;;;;6189178;23;20226;-80
2022/12/17 15:20:16;;;;;;;46.33;16.97;;;-4.20;99.90;;;;;;6216099;23;20187;-79
2022/12/17 15:22:44;;;;;;;49.67;17.83;;;-4.40;99.90;;;;;;6189160;23;20193;-81
2022/12/17 15:25:13;;;;;;;50.17;16.97;;;-4.40;99.90;;;;;;6188239;23;20201;-79
2022/12/17 15:27:41;;;;;;;48.37;17.17;;;-4.60;99.90;;;;;;6189275;23;20176;-83
2022/12/17 15:30:16;;;;;;;47.77;17.80;;;-4.50;99.90;;;;;;6188746;23;20213;-80
2022/12/17 15:32:44;;;;;;;48.07;16.47;;;-4.70;99.90;;;;;;6189160;23;20182;-83
2022/12/17 15:35:12;;;;;;;47.30;16.53;;;-4.80;99.90;;;;;;6188489;23;20557;-84
2022/12/17 15:37:40;;;;;;;44.43;16.47;;;-4.80;99.90;;;;;;6188807;23;20491;-82
2022/12/17 15:40:10;;;;;;;45.40;15.57;;;-4.80;99.90;;;;;;6190369;23;20527;-81
2022/12/17 15:45:32;;;;;;;50.63;17.20;;;-4.60;99.90;;;;;;6189081;23;20593;-84
2022/12/17 15:47:59;;;;;;;49.57;16.87;;;-4.80;99.90;;;;;;6190448;23;20185;-83
2022/12/17 15:50:25;;;;;;;55.73;17.30;;;-4.90;99.90;;;;;;6216543;23;20601;-82
2022/12/17 15:52:52;;;;;;;48.17;17.83;;;-4.90;99.90;;;;;;6189753;23;20175;-79
2022/12/17 15:55:20;;;;;;;57.10;18.20;;;-4.80;99.90;;;;;;6189539;23;20492;-83
2022/12/17 15:57:46;;;;;;;57.10;18.77;;;-4.70;99.90;;;;;;6189630;23;20656;-78
2022/12/17 16:00:14;;;;;;;55.80;17.93;;;-4.80;99.90;;;;;;6189350;23;20623;-86
2022/12/17 16:02:40;;;;;;;54.20;18.13;;;-4.60;99.90;;;;;;6189787;23;20202;-82
2022/12/17 16:05:08;;;;;;;51.83;18.83;;;-4.70;99.90;;;;;;6190028;23;20171;-82
2022/12/17 16:07:36;;;;;;;56.73;19.00;;;-4.80;99.90;;;;;;6164825;23;20181;-80
2022/12/17 16:10:05;;;;;;;59.93;19.47;;;-5.00;99.90;;;;;;6189320;23;20175;-88
2022/12/17 16:12:32;;;;;;;59.77;19.83;;;-5.00;99.90;;;;;;6216438;23;20250;-80
2022/12/17 16:15:03;;;;;;;51.93;17.70;;;-4.90;99.90;;;;;;6189541;23;20193;-90
2022/12/17 16:17:30;;;;;;;58.23;20.93;;;-4.70;99.90;;;;;;6189730;23;20185;-85
2022/12/17 16:19:57;;;;;;;56.40;20.17;;;-4.80;99.90;;;;;;6189732;23;20191;-83
2022/12/17 16:22:26;;;;;;;60.90;19.53;;;-4.90;99.90;;;;;;6190069;23;20197;-87
2022/12/17 16:24:53;;;;;;;54.23;19.17;;;-4.90;99.90;;;;;;6164188;23;20230;-72
2022/12/17 16:27:20;;;;;;;56.10;19.20;;;-5.10;99.90;;;;;;6188527;23;20182;-77
2022/12/17 16:29:47;;;;;;;64.57;20.73;;;-5.00;99.90;;;;;;6188847;23;20159;-78
2022/12/17 16:32:15;;;;;;;57.50;20.37;;;-5.00;99.90;;;;;;6189860;23;20171;-77
2022/12/17 16:34:43;;;;;;;61.63;19.30;;;-5.00;99.90;;;;;;6190357;23;20163;-84
2022/12/17 16:37:10;;;;;;;61.17;20.17;;;-4.90;99.90;;;;;;6190762;23;20171;-80
2022/12/17 16:39:37;;;;;;;61.70;20.57;;;-5.00;99.90;;;;;;6188833;23;20171;-79
2022/12/17 16:42:04;;;;;;;56.50;21.03;;;-5.00;99.90;;;;;;6189236;23;20179;-79
2022/12/17 16:44:31;;;;;;;58.67;19.00;;;-5.10;99.90;;;;;;6163704;23;20208;-80
2022/12/17 16:46:58;;;;;;;62.73;20.43;;;-5.10;99.90;;;;;;6189101;23;20166;-83
2022/12/17 16:49:26;;;;;;;58.90;19.57;;;-5.10;99.90;;;;;;6216004;23;20209;-82
2022/12/17 16:51:54;;;;;;;55.33;20.10;;;-5.20;99.90;;;;;;6189158;23;20177;-81
2022/12/17 16:54:25;;;;;;;59.80;20.63;;;-5.10;99.90;;;;;;6189375;23;20171;-83
2022/12/17 16:56:53;;;;;;;58.83;20.63;;;-5.10;99.90;;;;;;6185863;23;20199;-85
2022/12/17 16:59:22;;;;;;;55.50;18.57;;;-5.10;99.90;;;;;;6183711;23;20249;-80
2022/12/17 17:01:50;;;;;;;57.77;20.50;;;-5.20;99.90;;;;;;6183837;23;20206;-75
2022/12/17 17:04:22;;;;;;;56.07;18.70;;;-5.30;99.90;;;;;;6184149;23;20234;-78
2022/12/17 17:06:52;;;;;;;55.57;19.33;;;-5.20;99.90;;;;;;6184484;23;20168;-84
2022/12/17 17:09:20;;;;;;;57.70;19.73;;;-5.30;99.90;;;;;;6183820;23;20176;-82
2022/12/17 17:11:46;;;;;;;54.17;19.30;;;-5.40;99.90;;;;;;6184359;23;20180;-84
2022/12/17 17:14:17;;;;;;;51.70;19.00;;;-5.50;99.90;;;;;;6184169;23;20261;-79
2022/12/17 17:16:45;;;;;;;60.40;20.00;;;-5.60;99.90;;;;;;6184339;23;20156;-78
2022/12/17 17:19:11;;;;;;;49.00;17.70;;;-5.70;99.90;;;;;;6184788;23;20171;-84
2022/12/17 17:21:41;;;;;;;51.23;17.20;;;-5.60;99.90;;;;;;6183680;23;20199;-70
2022/12/17 17:24:14;;;;;;;50.83;18.13;;;-5.60;99.90;;;;;;6183345;23;20574;-71
2022/12/17 17:26:48;;;;;;;50.33;17.80;;;-5.70;99.90;;;;;;6183684;23;20574;-71
2022/12/17 17:29:15;;;;;;;47.17;16.87;;;-5.70;99.90;;;;;;6183375;23;20175;-75
2022/12/17 17:31:42;;;;;;;50.03;18.03;;;-5.70;99.90;;;;;;6183956;23;20199;-72
2022/12/17 17:34:32;;;;;;;46.30;16.40;;;-5.70;99.90;;;;;;6184020;23;20202;-76
2022/12/17 17:36:59;;;;;;;45.13;16.63;;;-5.70;99.90;;;;;;6159057;23;20196;-81
2022/12/17 17:39:26;;;;;;;42.80;16.10;;;-5.50;99.90;;;;;;6185513;23;20208;-80
2022/12/17 17:41:53;;;;;;;49.83;16.83;;;-5.70;99.90;;;;;;6160857;23;20168;-79
2022/12/17 17:44:20;;;;;;;48.27;15.77;;;-5.80;99.90;;;;;;6161319;23;20293;-85
2022/12/17 17:46:47;;;;;;;55.40;17.87;;;-5.80;99.90;;;;;;6185804;23;20254;-81
2022/12/17 17:49:14;;;;;;;50.80;17.40;;;-5.90;99.90;;;;;;6186614;23;20183;-76
2022/12/17 17:51:42;;;;;;;50.23;17.70;;;-5.90;99.90;;;;;;6186556;23;20559;-74
2022/12/17 17:54:29;;;;;;;44.50;16.43;;;-5.90;99.90;;;;;;6185474;23;20187;-77
2022/12/17 17:56:56;;;;;;;53.17;17.47;;;-5.80;99.90;;;;;;6201390;23;20189;-73
2022/12/17 17:59:23;;;;;;;49.70;18.00;;;-5.80;99.90;;;;;;6190125;23;20259;-76
2022/12/17 18:02:00;;;;;;;50.73;17.23;;;-5.70;99.90;;;;;;6190462;23;20250;-80
2022/12/17 18:04:27;;;;;;;43.60;16.60;;;-5.60;99.90;;;;;;6190230;23;20221;-79
2022/12/17 18:06:54;;;;;;;49.43;17.27;;;-5.50;99.90;;;;;;6190668;23;20173;-76
2022/12/17 18:09:41;;;;;;;48.43;16.50;;;-5.60;99.90;;;;;;6189628;23;20610;-75
2022/12/17 18:14:53;;;;;;;39.73;14.30;;;-5.70;99.90;;;;;;6189771;23;20178;-73
2022/12/17 18:17:40;;;;;;;35.83;14.27;;;-5.60;99.90;;;;;;6189283;23;20177;-78
2022/12/17 18:20:08;;;;;;;35.97;14.27;;;-5.70;99.90;;;;;;6216630;23;20219;-75
2022/12/17 18:22:36;;;;;;;38.70;14.80;;;-5.60;99.90;;;;;;6216659;23;20163;-77
2022/12/17 18:25:03;;;;;;;43.73;14.83;;;-5.60;99.90;;;;;;6190031;23;20665;-83
2022/12/17 18:27:30;;;;;;;38.33;14.00;;;-5.70;99.90;;;;;;6189958;23;20235;-78
2022/12/17 18:29:56;;;;;;;38.57;14.37;;;-5.80;99.90;;;;;;6190188;23;20166;-73
2022/12/17 18:32:23;;;;;;;39.43;13.70;;;-5.80;99.90;;;;;;6189886;23;20171;-77
2022/12/17 18:34:50;;;;;;;38.00;14.13;;;-5.80;99.90;;;;;;6190979;23;20180;-79
2022/12/17 18:37:17;;;;;;;35.77;13.73;;;-5.70;99.90;;;;;;6189859;23;20232;-83
2022/12/17 18:39:44;;;;;;;34.40;13.80;;;-5.70;99.90;;;;;;6217058;23;20462;-85
2022/12/17 18:44:56;;;;;;;37.13;13.43;;;-5.80;99.90;;;;;;6170234;23;20189;-83
2022/12/17 18:47:24;;;;;;;40.70;13.53;;;-5.70;99.90;;;;;;6191078;23;20181;-85
2022/12/17 18:49:51;;;;;;;31.00;12.80;;;-5.70;99.90;;;;;;6191637;23;20592;-83
2022/12/17 18:52:18;;;;;;;37.10;12.80;;;-5.90;99.90;;;;;;6194199;23;20182;-87
2022/12/17 18:54:45;;;;;;;32.57;13.07;;;-5.90;99.90;;;;;;6189444;23;20264;-74
2022/12/17 18:57:12;;;;;;;31.93;12.37;;;-5.90;99.90;;;;;;6164321;23;20210;-79
2022/12/17 18:59:39;;;;;;;38.10;13.40;;;-5.90;99.90;;;;;;6189445;23;20174;-85
2022/12/17 19:02:11;;;;;;;33.93;12.90;;;-5.90;99.90;;;;;;6189929;23;20258;-74
2022/12/17 19:04:39;;;;;;;31.03;12.03;;;-5.80;99.90;;;;;;6188617;23;20194;-77
2022/12/17 19:07:05;;;;;;;37.20;13.47;;;-5.80;99.90;;;;;;6215872;23;20163;-74
2022/12/17 19:09:38;;;;;;;34.97;12.53;;;-5.70;99.90;;;;;;6189342;23;20284;-88
2022/12/17 19:12:07;;;;;;;34.30;13.30;;;-5.70;99.90;;;;;;6189620;23;20166;-77
2022/12/17 19:14:34;;;;;;;38.80;12.73;;;-5.70;99.90;;;;;;6189431;23;20174;-77
2022/12/17 19:17:01;;;;;;;35.97;12.77;;;-5.80;99.90;;;;;;6189378;23;20601;-74
2022/12/17 19:19:28;;;;;;;34.63;12.40;;;-5.80;99.90;;;;;;6189521;23;20174;-72
2022/12/17 19:21:57;;;;;;;37.10;13.27;;;-5.60;99.90;;;;;;6215390;23;20575;-77
2022/12/17 19:24:27;;;;;;;42.27;13.03;;;-5.60;99.90;;;;;;6188346;23;20645;-75
2022/12/17 19:26:54;;;;;;;45.03;14.80;;;-5.60;99.90;;;;;;6187863;23;20574;-85
2022/12/17 19:29:22;;;;;;;38.60;13.80;;;-5.70;99.90;;;;;;6214739;23;20197;-74
2022/12/17 19:31:48;;;;;;;36.93;14.20;;;-5.60;99.90;;;;;;6188628;23;20608;-77
2022/12/17 19:34:18;;;;;;;41.27;15.33;;;-5.60;99.90;;;;;;6215347;23;20225;-80
2022/12/17 19:36:46;;;;;;;39.50;14.60;;;-5.70;99.90;;;;;;6214759;23;20177;-80
2022/12/17 19:39:16;;;;;;;43.70;14.23;;;-5.70;99.90;;;;;;6165518;23;20179;-82
2022/12/17 19:41:43;;;;;;;40.93;14.57;;;-5.70;99.90;;;;;;6189337;23;20253;-81
2022/12/17 19:44:12;;;;;;;42.07;15.77;;;-5.70;99.90;;;;;;6190093;23;20198;-79
2022/12/17 19:46:40;;;;;;;46.63;15.77;;;-5.60;99.90;;;;;;6216300;23;20171;-79
2022/12/17 19:49:09;;;;;;;41.87;15.10;;;-5.50;99.90;;;;;;6188964;23;20264;-82
2022/12/17 19:51:39;;;;;;;44.13;16.27;;;-5.50;99.90;;;;;;6215919;23;20166;-79
2022/12/17 19:54:06;;;;;;;45.10;17.07;;;-5.40;99.90;;;;;;6216003;23;20171;-81
2022/12/17 19:56:35;;;;;;;42.30;15.27;;;-5.40;99.90;;;;;;6188759;23;20198;-78
2022/12/17 19:59:05;;;;;;;41.00;15.67;;;-5.30;99.90;;;;;;6189707;23;20307;-85
2022/12/17 20:01:35;;;;;;;45.03;15.20;;;-5.40;99.90;;;;;;6189060;23;20167;-86
2022/12/17 20:04:03;;;;;;;48.17;16.60;;;-5.30;99.90;;;;;;6168855;23;20183;-89
2022/12/17 20:06:32;;;;;;;46.80;16.60;;;-5.30;99.90;;;;;;6200684;23;20171;-88
2022/12/17 20:09:00;;;;;;;49.27;16.77;;;-5.30;99.90;;;;;;6195331;23;20172;-88
2022/12/17 20:11:33;;;;;;;48.37;17.90;;;-5.40;99.90;;;;;;6193188;23;20601;-85
2022/12/17 20:14:07;;;;;;;49.03;16.63;;;-5.50;99.90;;;;;;6219603;23;20166;-82
2022/12/17 20:16:42;;;;;;;50.63;17.63;;;-5.50;99.90;;;;;;6192964;23;20198;-83
2022/12/17 20:19:13;;;;;;;55.10;18.07;;;-5.50;99.90;;;;;;6195229;23;20167;-85
2022/12/17 20:21:40;;;;;;;51.17;19.10;;;-5.40;99.90;;;;;;6194756;23;20206;-84
2022/12/17 20:24:08;;;;;;;53.77;19.13;;;-5.40;99.90;;;;;;6215640;23;20187;-84
2022/12/17 20:26:35;;;;;;;54.50;19.07;;;-5.40;99.90;;;;;;6216551;23;20167;-85
2022/12/17 20:29:03;;;;;;;55.27;19.00;;;-5.40;99.90;;;;;;6189549;23;20170;-82
2022/12/17 20:31:31;;;;;;;54.93;19.33;;;-5.30;99.90;;;;;;6189641;23;20254;-83
2022/12/17 20:34:02;;;;;;;59.10;19.57;;;-5.30;99.90;;;;;;6215992;23;20167;-87
2022/12/17 20:36:29;;;;;;;58.77;20.47;;;-5.20;99.90;;;;;;6189375;23;20170;-84
2022/12/17 20:38:57;;;;;;;56.20;19.53;;;-5.30;99.90;;;;;;6164802;23;20617;-81
2022/12/17 20:41:27;;;;;;;59.33;20.17;;;-5.30;99.90;;;;;;6215887;23;20177;-77
2022/12/17 20:43:54;;;;;;;53.03;19.17;;;-5.20;99.90;;;;;;6188595;23;20209;-77
2022/12/17 20:46:22;;;;;;;58.20;21.17;;;-5.20;99.90;;;;;;6215604;23;20253;-86
2022/12/17 20:48:50;;;;;;;57.77;19.93;;;-5.10;99.90;;;;;;6188050;23;20383;-78
2022/12/17 20:51:21;;;;;;;60.50;20.37;;;-5.00;99.90;;;;;;6215853;23;20253;-88
2022/12/17 20:53:48;;;;;;;52.13;19.03;;;-4.90;99.90;;;;;;6189081;23;20605;-88
2022/12/17 20:56:19;;;;;;;49.30;18.33;;;-4.90;99.90;;;;;;6215515;23;20229;-78
2022/12/17 20:58:46;;;;;;;50.77;19.47;;;-4.80;99.90;;;;;;6215959;23;20189;-76
2022/12/17 21:01:17;;;;;;;54.67;20.07;;;-4.60;99.90;;;;;;6215186;23;20534;-80
2022/12/17 21:03:45;;;;;;;58.03;19.87;;;-4.60;99.90;;;;;;6187855;23;20362;-75
2022/12/17 21:06:16;;;;;;;48.90;19.03;;;-4.60;99.90;;;;;;6188787;23;20174;-77
2022/12/17 21:08:47;;;;;;;50.50;18.13;;;-4.70;99.90;;;;;;6188842;23;20170;-76
2022/12/17 21:11:21;;;;;;;43.83;18.53;;;-4.70;99.90;;;;;;6215111;23;20167;-78
2022/12/17 21:13:49;;;;;;;47.50;18.53;;;-4.60;99.90;;;;;;6189306;23;20170;-76
2022/12/17 21:16:18;;;;;;;46.07;17.60;;;-4.60;99.90;;;;;;6216423;23;20615;-78
2022/12/17 21:18:46;;;;;;;44.57;17.63;;;-4.60;99.90;;;;;;6217240;23;20178;-79
2022/12/17 21:21:17;;;;;;;46.97;18.20;;;-4.70;99.90;;;;;;6190769;23;20632;-78
2022/12/17 21:23:45;;;;;;;45.70;18.33;;;-4.70;99.90;;;;;;6189366;23;20282;-80
2022/12/17 21:26:15;;;;;;;47.90;18.30;;;-4.70;99.90;;;;;;6190405;23;20167;-77
2022/12/17 21:28:44;;;;;;;47.83;17.33;;;-4.70;99.90;;;;;;6189775;23;20179;-78
2022/12/17 21:31:21;;;;;;;45.50;17.20;;;-4.80;99.90;;;;;;6190534;23;20171;-76
2022/12/17 21:33:52;;;;;;;44.03;17.40;;;-4.80;99.90;;;;;;6190213;23;20648;-81
2022/12/17 21:36:21;;;;;;;42.60;17.60;;;-4.80;99.90;;;;;;6216229;23;20178;-78
2022/12/17 21:38:49;;;;;;;41.53;16.40;;;-5.00;99.90;;;;;;6216146;23;20167;-80
2022/12/17 21:41:21;;;;;;;39.97;16.37;;;-5.00;99.90;;;;;;6216549;23;20167;-81
2022/12/17 21:43:56;;;;;;;37.03;15.43;;;-4.90;99.90;;;;;;6190220;23;20719;-77
2022/12/17 21:46:25;;;;;;;37.37;15.43;;;-4.90;99.90;;;;;;6189770;23;20174;-83
2022/12/17 21:48:53;;;;;;;34.60;14.13;;;-4.90;99.90;;;;;;6216265;23;20478;-78
2022/12/17 21:51:21;;;;;;;35.73;15.43;;;-4.90;99.90;;;;;;6217071;23;20191;-80
2022/12/17 21:53:52;;;;;;;38.40;15.73;;;-5.00;99.90;;;;;;6216655;23;20246;-80
2022/12/17 21:56:19;;;;;;;35.50;15.10;;;-5.00;99.90;;;;;;6188789;23;20233;-78
2022/12/17 21:58:47;;;;;;;34.70;14.33;;;-5.00;99.90;;;;;;6189926;23;20171;-75
2022/12/17 22:01:17;;;;;;;36.30;14.63;;;-5.00;99.90;;;;;;6190163;23;20479;-80
2022/12/17 22:03:47;;;;;;;33.30;14.27;;;-5.00;99.90;;;;;;6215906;23;20665;-73
2022/12/17 22:06:22;;;;;;;36.07;14.93;;;-5.00;99.90;;;;;;6189712;23;20174;-73
2022/12/17 22:08:51;;;;;;;38.33;15.13;;;-5.20;99.90;;;;;;6190770;23;20201;-73
2022/12/17 22:11:26;;;;;;;38.70;15.20;;;-5.30;99.90;;;;;;6217079;23;20167;-73
2022/12/17 22:14:11;;;;;;;37.67;15.70;;;-5.30;99.90;;;;;;6190365;23;20185;-76
2022/12/17 22:16:47;;;;;;;34.17;14.47;;;-5.30;99.90;;;;;;6216708;23;20502;-73
2022/12/17 22:19:22;;;;;;;35.57;14.63;;;-5.20;99.90;;;;;;6190304;23;20178;-76
2022/12/17 22:21:50;;;;;;;37.23;15.37;;;-5.20;99.90;;;;;;6189201;23;20197;-73
2022/12/17 22:24:23;;;;;;;39.10;15.57;;;-5.20;99.90;;;;;;6185520;23;20988;-76
2022/12/17 22:26:58;;;;;;;34.80;15.20;;;-5.20;99.90;;;;;;6189025;23;20178;-74
2022/12/17 22:34:58;;;;;;;38.33;15.57;;;-5.20;99.90;;;;;;6211226;23;20273;-76
2022/12/17 22:37:45;;;;;;;34.53;14.53;;;-5.10;99.90;;;;;;6184716;23;20185;-77
2022/12/17 22:40:35;;;;;;;34.70;13.87;;;-5.10;99.90;;;;;;6188339;23;20178;-79
2022/12/17 22:43:31;;;;;;;38.00;15.40;;;-5.00;99.90;;;;;;6187431;23;20237;-75
2022/12/17 22:46:18;;;;;;;35.80;14.73;;;-4.80;99.90;;;;;;6211197;23;20549;-73
2022/12/17 22:48:45;;;;;;;37.50;15.50;;;-4.90;99.90;;;;;;6185135;23;20185;-74
2022/12/17 22:51:12;;;;;;;34.63;15.73;;;-4.90;99.90;;;;;;6185258;23;20163;-74
2022/12/17 22:53:44;;;;;;;37.20;15.67;;;-4.90;99.90;;;;;;6188880;23;20171;-74
2022/12/17 22:56:12;;;;;;;38.60;16.30;;;-5.00;99.90;;;;;;6185208;23;20230;-78
2022/12/17 22:58:58;;;;;;;40.97;16.73;;;-5.00;99.90;;;;;;6188817;23;20213;-77
2022/12/17 23:01:25;;;;;;;41.40;16.83;;;-4.90;99.90;;;;;;6216151;23;20167;-76
2022/12/17 23:03:57;;;;;;;40.47;16.27;;;-4.80;99.90;;;;;;6189674;23;20167;-78
2022/12/17 23:06:25;;;;;;;40.83;17.87;;;-4.80;99.90;;;;;;6190600;23;20210;-79
2022/12/17 23:08:52;;;;;;;44.00;17.13;;;-4.80;99.90;;;;;;6189781;23;20171;-79
2022/12/17 23:11:21;;;;;;;39.27;17.47;;;-4.70;99.90;;;;;;6190113;23;20605;-76
2022/12/17 23:13:49;;;;;;;40.93;17.37;;;-4.80;99.90;;;;;;6189461;23;20174;-77
2022/12/17 23:16:16;;;;;;;40.73;17.50;;;-4.80;99.90;;;;;;6216313;23;20229;-76
2022/12/17 23:18:45;;;;;;;43.77;17.97;;;-4.90;99.90;;;;;;6189644;23;20167;-74
2022/12/17 23:21:15;;;;;;;41.73;17.33;;;-4.90;99.90;;;;;;6189360;23;20191;-77
2022/12/17 23:23:42;;;;;;;42.00;17.03;;;-4.90;99.90;;;;;;6189414;23;20179;-79
2022/12/17 23:26:18;;;;;;;44.70;18.53;;;-4.90;99.90;;;;;;6189074;23;20250;-74
2022/12/17 23:28:45;;;;;;;41.30;16.83;;;-4.80;99.90;;;;;;6189438;23;20163;-74
2022/12/17 23:31:16;;;;;;;47.07;18.33;;;-4.70;99.90;;;;;;6189187;23;20186;-74
2022/12/17 23:33:44;;;;;;;42.50;18.10;;;-4.60;99.90;;;;;;6189552;23;20175;-74
2022/12/17 23:36:19;;;;;;;40.23;16.90;;;-4.70;99.90;;;;;;6215532;23;20170;-74
2022/12/17 23:38:46;;;;;;;39.83;17.87;;;-4.80;99.90;;;;;;6215650;23;20169;-75
2022/12/17 23:41:17;;;;;;;43.60;18.10;;;-4.80;99.90;;;;;;6164763;23;20217;-75
2022/12/17 23:43:45;;;;;;;43.20;17.40;;;-4.80;99.90;;;;;;6215833;23;20171;-74
2022/12/17 23:46:12;;;;;;;41.27;18.23;;;-4.90;99.90;;;;;;6188804;23;20202;-77
2022/12/17 23:48:41;;;;;;;41.83;17.50;;;-4.80;99.90;;;;;;6189468;23;20478;-78
2022/12/17 23:51:13;;;;;;;35.40;16.90;;;-4.70;99.90;;;;;;6189295;23;20171;-78
2022/12/17 23:53:41;;;;;;;41.20;16.77;;;-4.70;99.90;;;;;;6189627;23;20163;-74
2022/12/17 23:56:11;;;;;;;39.13;16.53;;;-4.70;99.90;;;;;;6188967;23;20565;-76
2022/12/17 23:58:39;;;;;;;38.43;17.10;;;-4.70;99.90;;;;;;6189117;23;20187;-76
